Time,TemperatureF,DewpointF,PressureIn,WindDirection,WindDirectionDegrees,WindSpeedMPH,WindSpeedGustMPH,Humidity,HourlyPrecipIn,Conditions,Clouds,dailyrainin,SoftwareType,DateUTC
2013-01-09 00:22:00,44.0,40.0,30.20,North,0,0.0,2.0,85,0.00,,,-99.99,,2013-01-09 08:22:00,
2013-01-09 00:32:00,44.0,40.0,30.20,North,0,0.0,2.0,85,0.00,,,-99.99,,2013-01-09 08:32:00,
2013-01-09 00:42:00,44.0,40.0,30.20,North,0,0.0,2.0,85,0.00,,,-99.99,,2013-01-09 08:42:00,
2013-01-09 01:22:00,43.0,39.0,30.20,North,0,0.0,3.0,85,0.00,,,-99.99,,2013-01-09 09:22:00,
2013-01-09 01:32:00,43.0,39.0,30.20,North,0,0.0,3.0,85,0.00,,,-99.99,,2013-01-09 09:32:00,
2013-01-09 01:42:00,43.0,39.0,30.20,North,0,0.0,3.0,85,0.00,,,-99.99,,2013-01-09 09:42:00,
2013-01-09 02:22:00,42.0,38.0,30.20,North,0,0.0,4.0,87,0.00,,,-99.99,,2013-01-09 10:22:00,
2013-01-09 02:32:00,42.0,38.0,30.20,North,0,0.0,4.0,87,0.00,,,-99.99,,2013-01-09 10:32:00,
2013-01-09 02:42:00,42.0,38.0,30.20,North,0,0.0,4.0,87,0.00,,,-99.99,,2013-01-09 10:42:00,
2013-01-09 03:22:00,41.0,38.0,30.20,North,0,0.0,2.0,90,0.00,,,-99.99,,2013-01-09 11:22:00,
2013-01-09 03:32:00,41.0,38.0,30.20,North,0,0.0,2.0,90,0.00,,,-99.99,,2013-01-09 11:32:00,
2013-01-09 03:42:00,41.0,38.0,30.20,North,0,0.0,2.0,90,0.00,,,-99.99,,2013-01-09 11:42:00,
2013-01-09 04:22:00,40.0,38.0,30.20,North,0,0.0,2.0,92,0.00,,,-99.99,,2013-01-09 12:22:00,
2013-01-09 04:33:00,40.0,38.0,30.20,North,0,0.0,2.0,92,0.00,,,-99.99,,2013-01-09 12:33:00,
2013-01-09 05:22:00,39.0,37.0,30.19,North,-999,0.0,0.0,93,0.00,,,-99.99,,2013-01-09 13:22:00,
2013-01-09 05:33:00,39.0,37.0,30.19,North,-999,0.0,0.0,93,0.00,,,-99.99,,2013-01-09 13:33:00,
2013-01-09 06:22:00,39.0,37.0,30.20,North,0,0.0,2.0,94,0.00,,,-99.99,,2013-01-09 14:22:00,
2013-01-09 06:33:00,39.0,37.0,30.20,North,0,0.0,2.0,94,0.00,,,-99.99,,2013-01-09 14:33:00,
2013-01-09 06:43:00,39.0,37.0,30.20,North,0,0.0,2.0,94,0.00,,,-99.99,,2013-01-09 14:43:00,
2013-01-09 07:22:00,38.0,37.0,30.21,North,0,0.0,3.0,95,0.00,,,-99.99,,2013-01-09 15:22:00,
2013-01-09 07:33:00,38.0,37.0,30.21,North,0,0.0,3.0,95,0.00,,,-99.99,,2013-01-09 15:33:00,
2013-01-09 07:42:00,38.0,37.0,30.21,North,0,0.0,3.0,95,0.00,,,-99.99,,2013-01-09 15:42:00,
2013-01-09 08:22:00,39.0,38.0,30.22,North,-999,0.0,0.0,95,0.00,,,-99.99,,2013-01-09 16:22:00,
2013-01-09 08:33:00,39.0,38.0,30.22,North,-999,0.0,0.0,95,0.00,,,-99.99,,2013-01-09 16:33:00,
2013-01-09 08:42:00,39.0,38.0,30.22,North,-999,0.0,0.0,95,0.00,,,-99.99,,2013-01-09 16:42:00,
2013-01-09 09:22:00,47.0,42.0,30.24,North,0,0.0,3.0,83,0.00,,,-99.99,,2013-01-09 17:22:00,
2013-01-09 09:32:00,47.0,42.0,30.24,North,0,0.0,3.0,83,0.00,,,-99.99,,2013-01-09 17:32:00,
2013-01-09 09:43:00,47.0,42.0,30.24,North,0,0.0,3.0,83,0.00,,,-99.99,,2013-01-09 17:43:00,
2013-01-09 10:23:00,56.0,44.0,30.22,North,0,0.0,4.0,63,0.00,,,-99.99,,2013-01-09 18:23:00,
2013-01-09 10:33:00,56.0,44.0,30.22,North,0,0.0,4.0,63,0.00,,,-99.99,,2013-01-09 18:33:00,
2013-01-09 10:43:00,56.0,44.0,30.22,North,0,0.0,4.0,63,0.00,,,-99.99,,2013-01-09 18:43:00,
2013-01-09 11:22:00,63.0,43.0,30.20,North,-999,0.0,0.0,48,0.00,,,-99.99,,2013-01-09 19:22:00,
2013-01-09 11:33:00,63.0,43.0,30.20,North,-999,0.0,0.0,48,0.00,,,-99.99,,2013-01-09 19:33:00,
2013-01-09 11:43:00,63.0,43.0,30.20,North,-999,0.0,0.0,48,0.00,,,-99.99,,2013-01-09 19:43:00,
2013-01-09 12:22:00,69.0,42.0,30.17,North,0,0.0,7.0,38,0.00,,,-99.99,,2013-01-09 20:22:00,
2013-01-09 12:33:00,69.0,42.0,30.17,North,0,0.0,7.0,38,0.00,,,-99.99,,2013-01-09 20:33:00,
2013-01-09 12:42:00,69.0,42.0,30.17,North,0,0.0,7.0,38,0.00,,,-99.99,,2013-01-09 20:42:00,
2013-01-09 13:22:00,72.0,41.0,30.13,SW,220,4.0,11.0,32,0.00,,,-99.99,,2013-01-09 21:22:00,
2013-01-09 13:33:00,72.0,41.0,30.13,SW,220,4.0,11.0,32,0.00,,,-99.99,,2013-01-09 21:33:00,
2013-01-09 13:43:00,72.0,41.0,30.13,SW,220,4.0,11.0,32,0.00,,,-99.99,,2013-01-09 21:43:00,
2013-01-09 14:22:00,72.0,41.0,30.11,WSW,240,6.0,12.0,32,0.00,,,-99.99,,2013-01-09 22:22:00,
2013-01-09 14:33:00,72.0,41.0,30.11,WSW,240,6.0,12.0,32,0.00,,,-99.99,,2013-01-09 22:33:00,
2013-01-09 14:42:00,72.0,41.0,30.11,WSW,240,6.0,12.0,32,0.00,,,-99.99,,2013-01-09 22:42:00,
2013-01-09 15:22:00,70.0,42.0,30.10,SW,220,4.0,12.0,36,0.00,,,-99.99,,2013-01-09 23:22:00,
2013-01-09 15:32:00,70.0,42.0,30.10,SW,220,4.0,12.0,36,0.00,,,-99.99,,2013-01-09 23:32:00,
2013-01-09 15:42:00,70.0,42.0,30.10,SW,220,4.0,12.0,36,0.00,,,-99.99,,2013-01-09 23:42:00,
2013-01-09 16:22:00,66.0,44.0,30.10,South,190,8.0,11.0,45,0.00,,,-99.99,,2013-01-10 00:22:00,
2013-01-09 16:32:00,66.0,44.0,30.10,South,190,8.0,11.0,45,0.00,,,-99.99,,2013-01-10 00:32:00,
2013-01-09 16:42:00,66.0,44.0,30.10,South,190,8.0,11.0,45,0.00,,,-99.99,,2013-01-10 00:42:00,
2013-01-09 17:22:00,64.0,47.0,30.09,South,180,2.0,8.0,54,0.00,,,-99.99,,2013-01-10 01:22:00,
2013-01-09 17:32:00,64.0,47.0,30.09,South,180,2.0,8.0,54,0.00,,,-99.99,,2013-01-10 01:32:00,
2013-01-09 17:42:00,64.0,47.0,30.09,South,180,2.0,8.0,54,0.00,,,-99.99,,2013-01-10 01:42:00,
2013-01-09 18:22:00,59.0,46.0,30.09,SSW,210,4.0,8.0,63,0.00,,,-99.99,,2013-01-10 02:22:00,
2013-01-09 18:32:00,59.0,46.0,30.09,SSW,210,4.0,8.0,63,0.00,,,-99.99,,2013-01-10 02:32:00,
2013-01-09 18:42:00,59.0,46.0,30.09,SSW,210,4.0,8.0,63,0.00,,,-99.99,,2013-01-10 02:42:00,
2013-01-09 19:22:00,56.0,46.0,30.09,SSW,210,3.0,10.0,70,0.00,,,-99.99,,2013-01-10 03:22:00,
2013-01-09 19:32:00,56.0,46.0,30.09,SSW,210,3.0,10.0,70,0.00,,,-99.99,,2013-01-10 03:32:00,
2013-01-09 19:42:00,56.0,46.0,30.09,SSW,210,3.0,10.0,70,0.00,,,-99.99,,2013-01-10 03:42:00,
2013-01-09 20:22:00,54.0,47.0,30.10,SW,230,2.0,7.0,78,0.00,,,-99.99,,2013-01-10 04:22:00,
2013-01-09 20:32:00,54.0,47.0,30.10,SW,230,2.0,7.0,78,0.00,,,-99.99,,2013-01-10 04:32:00,
2013-01-09 20:42:00,54.0,47.0,30.10,SW,230,2.0,7.0,78,0.00,,,-99.99,,2013-01-10 04:42:00,
2013-01-09 21:22:00,52.0,46.0,30.10,North,0,0.0,4.0,81,0.00,,,-99.99,,2013-01-10 05:22:00,
2013-01-09 21:33:00,52.0,46.0,30.10,North,0,0.0,4.0,81,0.00,,,-99.99,,2013-01-10 05:33:00,
2013-01-09 21:42:00,52.0,46.0,30.10,North,0,0.0,4.0,81,0.00,,,-99.99,,2013-01-10 05:42:00,
2013-01-09 22:22:00,50.0,47.0,30.09,South,190,5.0,8.0,88,0.00,,,-99.99,,2013-01-10 06:22:00,
2013-01-09 22:32:00,50.0,47.0,30.09,South,190,5.0,8.0,88,0.00,,,-99.99,,2013-01-10 06:32:00,
2013-01-09 22:42:00,50.0,47.0,30.09,South,190,5.0,8.0,88,0.00,,,-99.99,,2013-01-10 06:42:00,
2013-01-09 23:22:00,49.0,48.0,30.09,SW,220,6.0,15.0,98,0.00,,,-99.99,,2013-01-10 07:22:00,
2013-01-09 23:32:00,49.0,48.0,30.09,SW,220,6.0,15.0,98,0.00,,,-99.99,,2013-01-10 07:32:00,
2013-01-09 23:42:00,49.0,48.0,30.09,SW,220,6.0,15.0,98,0.00,,,-99.99,,2013-01-10 07:42:00,